sensor_id;sensor_type;location;lat;lon;timestamp;pressure;altitude;pressure_sealevel;temperature;humidity
9249;BME280;4660;41.768;26.198;2023-03-26T00:01:30;100082.69;;;15.57;100.00
9249;BME280;4660;41.768;26.198;2023-03-26T00:03:59;100076.06;;;15.45;100.00
9249;BME280;4660;41.768;26.198;2023-03-26T00:06:29;100068.22;;;15.50;100.00
9249;BME280;4660;41.768;26.198;2023-03-26T00:08:57;100064.94;;;15.40;100.00
9249;BME280;4660;41.768;26.198;2023-03-26T00:11:34;100066.63;;;15.26;100.00
9249;BME280;4660;41.768;26.198;2023-03-26T00:14:03;100069.00;;;15.14;100.00
9249;BME280;4660;41.768;26.198;2023-03-26T00:16:32;100062.53;;;15.16;100.00
9249;BME280;4660;41.768;26.198;2023-03-26T00:19:01;100064.47;;;14.92;100.00
9249;BME280;4660;41.768;26.198;2023-03-26T00:21:30;100056.53;;;14.91;100.00
9249;BME280;4660;41.768;26.198;2023-03-26T00:24:03;100049.81;;;14.86;100.00
9249;BME280;4660;41.768;26.198;2023-03-26T00:26:32;100047.03;;;14.95;100.00
9249;BME280;4660;41.768;26.198;2023-03-26T00:28:59;100049.53;;;14.96;100.00
9249;BME280;4660;41.768;26.198;2023-03-26T00:31:26;100044.41;;;15.01;100.00
9249;BME280;4660;41.768;26.198;2023-03-26T00:33:53;100027.47;;;14.99;100.00
9249;BME280;4660;41.768;26.198;2023-03-26T00:36:22;100057.22;;;15.07;100.00
9249;BME280;4660;41.768;26.198;2023-03-26T00:38:53;100053.63;;;14.92;100.00
9249;BME280;4660;41.768;26.198;2023-03-26T00:41:25;100049.22;;;14.76;100.00
9249;BME280;4660;41.768;26.198;2023-03-26T00:43:58;100050.16;;;14.69;100.00
9249;BME280;4660;41.768;26.198;2023-03-26T00:46:30;100052.13;;;14.75;100.00
9249;BME280;4660;41.768;26.198;2023-03-26T00:48:58;100065.38;;;14.70;100.00
9249;BME280;4660;41.768;26.198;2023-03-26T00:51:29;100024.34;;;14.20;100.00
9249;BME280;4660;41.768;26.198;2023-03-26T00:54:00;100073.34;;;14.25;100.00
9249;BME280;4660;41.768;26.198;2023-03-26T00:56:28;100085.00;;;14.03;100.00
9249;BME280;4660;41.768;26.198;2023-03-26T00:58:54;100094.75;;;14.12;100.00
9249;BME280;4660;41.768;26.198;2023-03-26T01:01:34;100095.81;;;14.03;100.00
9249;BME280;4660;41.768;26.198;2023-03-26T01:04:24;100087.78;;;14.18;100.00
9249;BME280;4660;41.768;26.198;2023-03-26T01:06:55;100087.38;;;14.29;100.00
9249;BME280;4660;41.768;26.198;2023-03-26T01:09:30;100066.53;;;14.07;100.00
9249;BME280;4660;41.768;26.198;2023-03-26T01:12:08;100100.63;;;14.39;100.00
9249;BME280;4660;41.768;26.198;2023-03-26T01:14:37;100105.34;;;14.45;100.00
9249;BME280;4660;41.768;26.198;2023-03-26T01:17:07;100097.75;;;14.17;100.00
9249;BME280;4660;41.768;26.198;2023-03-26T01:22:48;100096.19;;;14.23;100.00
9249;BME280;4660;41.768;26.198;2023-03-26T01:25:31;100098.53;;;14.26;100.00
9249;BME280;4660;41.768;26.198;2023-03-26T01:28:06;100095.09;;;14.32;100.00
9249;BME280;4660;41.768;26.198;2023-03-26T01:30:41;100086.28;;;14.38;100.00
9249;BME280;4660;41.768;26.198;2023-03-26T01:33:45;100093.19;;;14.18;100.00
9249;BME280;4660;41.768;26.198;2023-03-26T01:36:34;100077.84;;;14.33;100.00
9249;BME280;4660;41.768;26.198;2023-03-26T01:41:50;100070.75;;;14.32;100.00
9249;BME280;4660;41.768;26.198;2023-03-26T01:44:42;100075.50;;;14.30;100.00
9249;BME280;4660;41.768;26.198;2023-03-26T01:47:12;100072.75;;;14.15;100.00
9249;BME280;4660;41.768;26.198;2023-03-26T01:49:40;100065.81;;;14.13;100.00
9249;BME280;4660;41.768;26.198;2023-03-26T01:52:13;100061.78;;;13.86;100.00
9249;BME280;4660;41.768;26.198;2023-03-26T01:54:41;100065.84;;;13.59;100.00
9249;BME280;4660;41.768;26.198;2023-03-26T02:00:32;100064.00;;;13.51;100.00
9249;BME280;4660;41.768;26.198;2023-03-26T02:05:54;100096.13;;;13.46;100.00
9249;BME280;4660;41.768;26.198;2023-03-26T02:10:58;100104.59;;;13.35;100.00
9249;BME280;4660;41.768;26.198;2023-03-26T02:13:31;100082.88;;;13.04;100.00
9249;BME280;4660;41.768;26.198;2023-03-26T02:16:06;100102.47;;;12.98;100.00
9249;BME280;4660;41.768;26.198;2023-03-26T02:18:34;100101.47;;;12.90;100.00
9249;BME280;4660;41.768;26.198;2023-03-26T02:21:15;100095.72;;;13.02;100.00
9249;BME280;4660;41.768;26.198;2023-03-26T02:23:49;100092.69;;;12.97;100.00
9249;BME280;4660;41.768;26.198;2023-03-26T02:26:24;100104.00;;;12.92;100.00
9249;BME280;4660;41.768;26.198;2023-03-26T02:28:51;100106.22;;;12.80;100.00
9249;BME280;4660;41.768;26.198;2023-03-26T02:31:18;100085.50;;;12.48;100.00
9249;BME280;4660;41.768;26.198;2023-03-26T02:33:43;100112.97;;;12.76;100.00
9249;BME280;4660;41.768;26.198;2023-03-26T02:36:14;100093.41;;;12.66;100.00
9249;BME280;4660;41.768;26.198;2023-03-26T02:38:45;100113.81;;;12.68;100.00
9249;BME280;4660;41.768;26.198;2023-03-26T02:41:11;100114.31;;;12.64;100.00
9249;BME280;4660;41.768;26.198;2023-03-26T02:43:38;100124.25;;;12.63;100.00
9249;BME280;4660;41.768;26.198;2023-03-26T02:46:05;100122.75;;;12.69;100.00
9249;BME280;4660;41.768;26.198;2023-03-26T02:48:31;100123.44;;;12.79;100.00
9249;BME280;4660;41.768;26.198;2023-03-26T02:51:04;100127.31;;;12.68;100.00
9249;BME280;4660;41.768;26.198;2023-03-26T02:53:32;100129.34;;;12.58;100.00
9249;BME280;4660;41.768;26.198;2023-03-26T02:55:59;100132.88;;;12.75;100.00
9249;BME280;4660;41.768;26.198;2023-03-26T02:58:25;100136.41;;;12.84;100.00
9249;BME280;4660;41.768;26.198;2023-03-26T03:00:53;100141.31;;;12.64;100.00
9249;BME280;4660;41.768;26.198;2023-03-26T03:03:22;100139.31;;;12.66;100.00
9249;BME280;4660;41.768;26.198;2023-03-26T03:05:56;100128.66;;;12.89;100.00
9249;BME280;4660;41.768;26.198;2023-03-26T03:08:26;100142.28;;;13.04;100.00
9249;BME280;4660;41.768;26.198;2023-03-26T03:11:18;100147.53;;;12.97;100.00
9249;BME280;4660;41.768;26.198;2023-03-26T03:13:53;100140.31;;;12.73;100.00
9249;BME280;4660;41.768;26.198;2023-03-26T03:16:20;100132.72;;;12.52;100.00
9249;BME280;4660;41.768;26.198;2023-03-26T03:18:47;100140.16;;;12.50;100.00
9249;BME280;4660;41.768;26.198;2023-03-26T03:21:22;100150.41;;;12.55;100.00
9249;BME280;4660;41.768;26.198;2023-03-26T03:23:49;100154.13;;;12.46;100.00
9249;BME280;4660;41.768;26.198;2023-03-26T03:26:20;100141.81;;;12.67;100.00
9249;BME280;4660;41.768;26.198;2023-03-26T03:29:08;100159.53;;;12.62;100.00
9249;BME280;4660;41.768;26.198;2023-03-26T03:31:35;100152.97;;;12.64;100.00
9249;BME280;4660;41.768;26.198;2023-03-26T03:34:02;100162.41;;;12.60;100.00
9249;BME280;4660;41.768;26.198;2023-03-26T03:36:29;100161.88;;;12.40;100.00
9249;BME280;4660;41.768;26.198;2023-03-26T03:38:58;100169.94;;;12.24;100.00
9249;BME280;4660;41.768;26.198;2023-03-26T03:41:28;100176.84;;;12.27;100.00
9249;BME280;4660;41.768;26.198;2023-03-26T03:43:56;100177.19;;;12.24;100.00
9249;BME280;4660;41.768;26.198;2023-03-26T03:46:24;100189.69;;;12.33;100.00
9249;BME280;4660;41.768;26.198;2023-03-26T03:48:50;100206.38;;;12.36;100.00
9249;BME280;4660;41.768;26.198;2023-03-26T03:51:17;100209.03;;;12.28;100.00
9249;BME280;4660;41.768;26.198;2023-03-26T03:53:44;100206.31;;;12.20;100.00
9249;BME280;4660;41.768;26.198;2023-03-26T03:56:12;100194.81;;;12.02;100.00
9249;BME280;4660;41.768;26.198;2023-03-26T03:58:39;100196.13;;;11.90;100.00
9249;BME280;4660;41.768;26.198;2023-03-26T04:01:07;100224.47;;;12.02;100.00
9249;BME280;4660;41.768;26.198;2023-03-26T04:03:33;100220.31;;;12.07;100.00
9249;BME280;4660;41.768;26.198;2023-03-26T04:06:08;100220.66;;;12.21;100.00
9249;BME280;4660;41.768;26.198;2023-03-26T04:08:36;100229.28;;;12.24;100.00
9249;BME280;4660;41.768;26.198;2023-03-26T04:11:04;100231.69;;;12.44;100.00
9249;BME280;4660;41.768;26.198;2023-03-26T04:13:31;100250.41;;;12.45;100.00
9249;BME280;4660;41.768;26.198;2023-03-26T04:15:58;100266.59;;;12.45;100.00
9249;BME280;4660;41.768;26.198;2023-03-26T04:18:26;100248.84;;;12.34;100.00
9249;BME280;4660;41.768;26.198;2023-03-26T04:20:56;100247.53;;;12.38;100.00
9249;BME280;4660;41.768;26.198;2023-03-26T04:23:30;100255.28;;;12.42;100.00
9249;BME280;4660;41.768;26.198;2023-03-26T04:26:01;100232.00;;;12.40;100.00
9249;BME280;4660;41.768;26.198;2023-03-26T04:28:56;100247.19;;;12.50;100.00
9249;BME280;4660;41.768;26.198;2023-03-26T04:31:26;100243.84;;;12.64;100.00
9249;BME280;4660;41.768;26.198;2023-03-26T04:34:19;100235.09;;;12.78;100.00
9249;BME280;4660;41.768;26.198;2023-03-26T04:36:51;100252.66;;;12.82;100.00
9249;BME280;4660;41.768;26.198;2023-03-26T04:39:20;100251.63;;;12.75;100.00
9249;BME280;4660;41.768;26.198;2023-03-26T04:42:02;100263.44;;;12.66;100.00
9249;BME280;4660;41.768;26.198;2023-03-26T04:44:27;100265.63;;;12.62;100.00
9249;BME280;4660;41.768;26.198;2023-03-26T04:46:56;100272.56;;;12.65;100.00
9249;BME280;4660;41.768;26.198;2023-03-26T04:49:23;100234.25;;;12.53;100.00
9249;BME280;4660;41.768;26.198;2023-03-26T04:51:51;100260.09;;;12.72;100.00
9249;BME280;4660;41.768;26.198;2023-03-26T04:54:19;100268.50;;;12.69;100.00
9249;BME280;4660;41.768;26.198;2023-03-26T04:56:54;100277.63;;;12.84;100.00
9249;BME280;4660;41.768;26.198;2023-03-26T04:59:31;100291.66;;;12.80;100.00
9249;BME280;4660;41.768;26.198;2023-03-26T05:02:03;100278.63;;;12.67;100.00
9249;BME280;4660;41.768;26.198;2023-03-26T05:04:30;100270.34;;;12.60;100.00
9249;BME280;4660;41.768;26.198;2023-03-26T05:07:00;100286.38;;;12.70;100.00
9249;BME280;4660;41.768;26.198;2023-03-26T05:09:28;100294.66;;;12.68;100.00
9249;BME280;4660;41.768;26.198;2023-03-26T05:11:56;100287.91;;;12.64;100.00
9249;BME280;4660;41.768;26.198;2023-03-26T05:14:24;100285.53;;;12.70;100.00
9249;BME280;4660;41.768;26.198;2023-03-26T05:16:51;100288.97;;;12.96;100.00
9249;BME280;4660;41.768;26.198;2023-03-26T05:19:17;100272.25;;;13.01;100.00
9249;BME280;4660;41.768;26.198;2023-03-26T05:21:44;100280.84;;;12.96;100.00
9249;BME280;4660;41.768;26.198;2023-03-26T05:24:11;100281.34;;;12.91;100.00
9249;BME280;4660;41.768;26.198;2023-03-26T05:26:39;100277.25;;;12.71;100.00
9249;BME280;4660;41.768;26.198;2023-03-26T05:29:06;100273.72;;;12.62;100.00
9249;BME280;4660;41.768;26.198;2023-03-26T05:31:33;100291.44;;;12.65;100.00
9249;BME280;4660;41.768;26.198;2023-03-26T05:34:01;100298.53;;;12.74;100.00
9249;BME280;4660;41.768;26.198;2023-03-26T05:36:28;100304.63;;;12.92;100.00
9249;BME280;4660;41.768;26.198;2023-03-26T05:38:55;100306.66;;;13.07;100.00
9249;BME280;4660;41.768;26.198;2023-03-26T05:41:23;100304.81;;;13.07;100.00
9249;BME280;4660;41.768;26.198;2023-03-26T05:43:51;100321.41;;;13.20;100.00
9249;BME280;4660;41.768;26.198;2023-03-26T05:46:17;100313.25;;;13.12;100.00
9249;BME280;4660;41.768;26.198;2023-03-26T05:48:48;100316.81;;;13.13;100.00
9249;BME280;4660;41.768;26.198;2023-03-26T05:51:15;100327.81;;;13.28;100.00
9249;BME280;4660;41.768;26.198;2023-03-26T05:53:42;100330.38;;;13.29;100.00
9249;BME280;4660;41.768;26.198;2023-03-26T05:56:09;100322.94;;;13.39;100.00
9249;BME280;4660;41.768;26.198;2023-03-26T05:58:36;100335.09;;;13.52;100.00
9249;BME280;4660;41.768;26.198;2023-03-26T06:01:05;100328.84;;;13.43;100.00
9249;BME280;4660;41.768;26.198;2023-03-26T06:03:42;100320.56;;;13.28;100.00
9249;BME280;4660;41.768;26.198;2023-03-26T06:06:19;100340.00;;;13.48;100.00
9249;BME280;4660;41.768;26.198;2023-03-26T06:08:58;100352.66;;;13.47;100.00
9249;BME280;4660;41.768;26.198;2023-03-26T06:11:26;100347.91;;;13.49;100.00
9249;BME280;4660;41.768;26.198;2023-03-26T06:13:52;100353.00;;;13.44;100.00
9249;BME280;4660;41.768;26.198;2023-03-26T06:16:19;100347.25;;;13.56;100.00
9249;BME280;4660;41.768;26.198;2023-03-26T06:18:49;100359.91;;;13.55;100.00
9249;BME280;4660;41.768;26.198;2023-03-26T06:21:18;100332.56;;;13.58;100.00
9249;BME280;4660;41.768;26.198;2023-03-26T06:23:45;100337.44;;;13.71;100.00
9249;BME280;4660;41.768;26.198;2023-03-26T06:26:15;100336.94;;;13.59;100.00
9249;BME280;4660;41.768;26.198;2023-03-26T06:28:42;100334.09;;;13.53;100.00
9249;BME280;4660;41.768;26.198;2023-03-26T06:31:12;100336.59;;;13.70;100.00
9249;BME280;4660;41.768;26.198;2023-03-26T06:33:39;100348.91;;;13.89;100.00
9249;BME280;4660;41.768;26.198;2023-03-26T06:36:06;100346.16;;;14.05;100.00
9249;BME280;4660;41.768;26.198;2023-03-26T06:38:33;100337.03;;;14.15;100.00
9249;BME280;4660;41.768;26.198;2023-03-26T06:41:05;100347.09;;;14.37;100.00
9249;BME280;4660;41.768;26.198;2023-03-26T06:43:37;100337.59;;;14.41;100.00
9249;BME280;4660;41.768;26.198;2023-03-26T06:46:04;100347.06;;;14.45;100.00
9249;BME280;4660;41.768;26.198;2023-03-26T06:48:31;100364.03;;;14.31;100.00
9249;BME280;4660;41.768;26.198;2023-03-26T06:50:58;100356.94;;;14.30;100.00
9249;BME280;4660;41.768;26.198;2023-03-26T06:53:25;100348.50;;;14.17;100.00
9249;BME280;4660;41.768;26.198;2023-03-26T06:55:52;100361.66;;;14.28;100.00
9249;BME280;4660;41.768;26.198;2023-03-26T06:58:20;100348.06;;;14.52;100.00
9249;BME280;4660;41.768;26.198;2023-03-26T07:00:52;100368.84;;;14.60;100.00
9249;BME280;4660;41.768;26.198;2023-03-26T07:03:18;100364.16;;;14.38;100.00
9249;BME280;4660;41.768;26.198;2023-03-26T07:05:48;100377.69;;;14.46;100.00
9249;BME280;4660;41.768;26.198;2023-03-26T07:08:18;100386.31;;;14.49;100.00
9249;BME280;4660;41.768;26.198;2023-03-26T07:10:45;100379.16;;;14.56;100.00
9249;BME280;4660;41.768;26.198;2023-03-26T07:13:13;100385.94;;;14.61;100.00
9249;BME280;4660;41.768;26.198;2023-03-26T07:15:40;100384.81;;;14.86;100.00
9249;BME280;4660;41.768;26.198;2023-03-26T07:18:07;100388.72;;;15.14;100.00
9249;BME280;4660;41.768;26.198;2023-03-26T07:20:34;100381.56;;;15.22;100.00
9249;BME280;4660;41.768;26.198;2023-03-26T07:23:01;100356.84;;;14.94;100.00
9249;BME280;4660;41.768;26.198;2023-03-26T07:25:31;100381.38;;;14.92;100.00
9249;BME280;4660;41.768;26.198;2023-03-26T07:28:36;100398.91;;;15.04;100.00
9249;BME280;4660;41.768;26.198;2023-03-26T07:31:32;100386.16;;;15.13;100.00
9249;BME280;4660;41.768;26.198;2023-03-26T07:43:15;100381.31;;;15.92;100.00
9249;BME280;4660;41.768;26.198;2023-03-26T07:45:47;100371.44;;;16.14;100.00
9249;BME280;4660;41.768;26.198;2023-03-26T07:48:50;100369.22;;;16.17;100.00
9249;BME280;4660;41.768;26.198;2023-03-26T07:51:18;100364.22;;;16.21;100.00
9249;BME280;4660;41.768;26.198;2023-03-26T07:53:45;100371.44;;;16.29;100.00
9249;BME280;4660;41.768;26.198;2023-03-26T07:56:47;100376.41;;;16.40;100.00
9249;BME280;4660;41.768;26.198;2023-03-26T07:59:48;100372.03;;;16.39;100.00
9249;BME280;4660;41.768;26.198;2023-03-26T08:05:27;100369.19;;;16.62;100.00
9249;BME280;4660;41.768;26.198;2023-03-26T08:11:27;100369.84;;;16.64;100.00
9249;BME280;4660;41.768;26.198;2023-03-26T08:17:07;100372.19;;;16.82;100.00
9249;BME280;4660;41.768;26.198;2023-03-26T08:22:41;100379.84;;;17.08;100.00
9249;BME280;4660;41.768;26.198;2023-03-26T08:25:28;100382.09;;;17.25;100.00
9249;BME280;4660;41.768;26.198;2023-03-26T08:28:34;100387.25;;;17.20;100.00
9249;BME280;4660;41.768;26.198;2023-03-26T08:31:11;100366.44;;;17.27;100.00
9249;BME280;4660;41.768;26.198;2023-03-26T08:33:39;100357.75;;;17.17;100.00
9249;BME280;4660;41.768;26.198;2023-03-26T08:36:08;100373.03;;;17.18;100.00
9249;BME280;4660;41.768;26.198;2023-03-26T08:38:35;100355.38;;;17.29;100.00
9249;BME280;4660;41.768;26.198;2023-03-26T08:46:51;100351.69;;;17.37;92.94
9249;BME280;4660;41.768;26.198;2023-03-26T08:58:56;100365.34;;;17.86;89.94
9249;BME280;4660;41.768;26.198;2023-03-26T09:22:37;100363.69;;;17.92;82.13
9249;BME280;4660;41.768;26.198;2023-03-26T09:25:50;100355.66;;;18.11;81.92
9249;BME280;4660;41.768;26.198;2023-03-26T09:48:44;100343.16;;;18.58;73.35
9249;BME280;4660;41.768;26.198;2023-03-26T09:51:58;100356.91;;;18.85;70.44
9249;BME280;4660;41.768;26.198;2023-03-26T09:57:58;100338.69;;;18.92;71.11
9249;BME280;4660;41.768;26.198;2023-03-26T10:03:20;100346.25;;;18.96;63.97
9249;BME280;4660;41.768;26.198;2023-03-26T10:09:02;100342.75;;;19.09;68.02
9249;BME280;4660;41.768;26.198;2023-03-26T10:14:35;100341.69;;;19.10;71.35
9249;BME280;4660;41.768;26.198;2023-03-26T10:17:32;100358.78;;;18.84;66.79
9249;BME280;4660;41.768;26.198;2023-03-26T10:26:25;100352.22;;;19.33;64.86
9249;BME280;4660;41.768;26.198;2023-03-26T10:35:18;100352.47;;;19.45;64.44
9249;BME280;4660;41.768;26.198;2023-03-26T10:41:14;100350.56;;;19.39;61.64
9249;BME280;4660;41.768;26.198;2023-03-26T10:44:13;100346.34;;;19.49;61.34
9249;BME280;4660;41.768;26.198;2023-03-26T10:50:19;100329.13;;;19.42;59.24
9249;BME280;4660;41.768;26.198;2023-03-26T10:53:11;100338.41;;;19.55;58.61
9249;BME280;4660;41.768;26.198;2023-03-26T10:55:44;100340.31;;;19.61;58.93
9249;BME280;4660;41.768;26.198;2023-03-26T10:58:27;100325.63;;;19.68;58.31
9249;BME280;4660;41.768;26.198;2023-03-26T11:01:14;100311.97;;;19.68;57.05
9249;BME280;4660;41.768;26.198;2023-03-26T11:03:54;100313.03;;;19.87;59.21
9249;BME280;4660;41.768;26.198;2023-03-26T11:16:24;100315.75;;;19.74;58.50
9249;BME280;4660;41.768;26.198;2023-03-26T11:19:03;100298.34;;;19.62;58.01
9249;BME280;4660;41.768;26.198;2023-03-26T11:25:02;100306.47;;;20.08;57.87
9249;BME280;4660;41.768;26.198;2023-03-26T11:34:02;100289.38;;;20.32;55.39
9249;BME280;4660;41.768;26.198;2023-03-26T11:36:44;100284.13;;;20.31;53.42
9249;BME280;4660;41.768;26.198;2023-03-26T11:39:28;100274.88;;;20.45;54.26
9249;BME280;4660;41.768;26.198;2023-03-26T11:42:09;100292.69;;;20.54;51.85
9249;BME280;4660;41.768;26.198;2023-03-26T11:45:11;100284.72;;;20.46;52.64
9249;BME280;4660;41.768;26.198;2023-03-26T11:47:47;100269.78;;;20.49;51.28
9249;BME280;4660;41.768;26.198;2023-03-26T11:50:24;100265.00;;;20.44;52.70
9249;BME280;4660;41.768;26.198;2023-03-26T11:53:14;100270.47;;;20.44;53.82
9249;BME280;4660;41.768;26.198;2023-03-26T12:01:04;100251.97;;;20.33;51.17
9249;BME280;4660;41.768;26.198;2023-03-26T12:03:39;100249.81;;;20.42;51.46
9249;BME280;4660;41.768;26.198;2023-03-26T12:06:20;100258.81;;;20.55;50.67
9249;BME280;4660;41.768;26.198;2023-03-26T12:08:49;100227.03;;;20.16;49.90
9249;BME280;4660;41.768;26.198;2023-03-26T12:11:22;100247.09;;;20.48;53.35
9249;BME280;4660;41.768;26.198;2023-03-26T12:14:03;100253.56;;;20.60;50.95
9249;BME280;4660;41.768;26.198;2023-03-26T12:16:33;100233.22;;;20.43;49.33
9249;BME280;4660;41.768;26.198;2023-03-26T12:19:20;100249.56;;;20.56;51.17
9249;BME280;4660;41.768;26.198;2023-03-26T12:21:51;100243.34;;;20.81;51.96
9249;BME280;4660;41.768;26.198;2023-03-26T12:24:31;100234.34;;;21.05;49.17
9249;BME280;4660;41.768;26.198;2023-03-26T12:27:24;100222.84;;;20.97;49.76
9249;BME280;4660;41.768;26.198;2023-03-26T12:30:08;100223.94;;;20.89;49.21
9249;BME280;4660;41.768;26.198;2023-03-26T12:32:40;100245.22;;;20.87;48.62
9249;BME280;4660;41.768;26.198;2023-03-26T12:35:18;100225.69;;;20.77;49.10
9249;BME280;4660;41.768;26.198;2023-03-26T12:37:48;100229.59;;;20.94;49.48
9249;BME280;4660;41.768;26.198;2023-03-26T12:40:35;100226.59;;;21.02;48.26
9249;BME280;4660;41.768;26.198;2023-03-26T12:43:28;100217.34;;;21.22;47.09
9249;BME280;4660;41.768;26.198;2023-03-26T12:45:56;100216.94;;;21.25;46.14
9249;BME280;4660;41.768;26.198;2023-03-26T12:48:29;100209.78;;;21.30;48.77
9249;BME280;4660;41.768;26.198;2023-03-26T12:51:38;100211.69;;;21.23;47.42
9249;BME280;4660;41.768;26.198;2023-03-26T13:06:07;100196.69;;;21.32;40.31
9249;BME280;4660;41.768;26.198;2023-03-26T13:09:25;100196.16;;;21.42;40.44
9249;BME280;4660;41.768;26.198;2023-03-26T13:18:40;100196.44;;;21.09;37.70
9249;BME280;4660;41.768;26.198;2023-03-26T13:21:45;100183.63;;;21.34;39.53
9249;BME280;4660;41.768;26.198;2023-03-26T13:41:54;100156.91;;;21.73;37.97
9249;BME280;4660;41.768;26.198;2023-03-26T13:47:33;100148.13;;;21.46;35.70
9249;BME280;4660;41.768;26.198;2023-03-26T13:50:39;100155.94;;;21.42;35.78
9249;BME280;4660;41.768;26.198;2023-03-26T13:53:27;100159.25;;;21.51;36.15
9249;BME280;4660;41.768;26.198;2023-03-26T13:55:59;100137.94;;;21.71;34.22
9249;BME280;4660;41.768;26.198;2023-03-26T13:58:39;100127.69;;;21.49;35.44
9249;BME280;4660;41.768;26.198;2023-03-26T14:01:14;100134.91;;;21.61;36.52
9249;BME280;4660;41.768;26.198;2023-03-26T14:04:26;100144.50;;;21.52;35.87
9249;BME280;4660;41.768;26.198;2023-03-26T14:07:19;100145.94;;;21.36;35.46
9249;BME280;4660;41.768;26.198;2023-03-26T14:10:09;100146.47;;;21.45;37.08
9249;BME280;4660;41.768;26.198;2023-03-26T14:12:55;100128.84;;;21.59;35.13
9249;BME280;4660;41.768;26.198;2023-03-26T14:15:35;100132.19;;;21.61;34.37
9249;BME280;4660;41.768;26.198;2023-03-26T14:27:36;100147.06;;;21.84;36.40
9249;BME280;4660;41.768;26.198;2023-03-26T14:31:00;100145.88;;;21.61;35.90
9249;BME280;4660;41.768;26.198;2023-03-26T14:42:00;100142.06;;;21.81;36.40
9249;BME280;4660;41.768;26.198;2023-03-26T14:47:41;100126.41;;;21.69;36.41
9249;BME280;4660;41.768;26.198;2023-03-26T14:53:37;100155.75;;;21.99;34.06
9249;BME280;4660;41.768;26.198;2023-03-26T15:11:21;100152.41;;;22.45;32.80
9249;BME280;4660;41.768;26.198;2023-03-26T15:20:18;100159.56;;;22.46;32.93
9249;BME280;4660;41.768;26.198;2023-03-26T15:29:33;100164.53;;;23.68;30.65
9249;BME280;4660;41.768;26.198;2023-03-26T15:32:44;100154.69;;;23.96;30.08
9249;BME280;4660;41.768;26.198;2023-03-26T15:38:33;100161.41;;;23.88;29.34
9249;BME280;4660;41.768;26.198;2023-03-26T15:45:12;100165.13;;;24.22;30.36
9249;BME280;4660;41.768;26.198;2023-03-26T15:48:05;100163.13;;;24.06;30.22
9249;BME280;4660;41.768;26.198;2023-03-26T15:51:05;100170.56;;;24.05;30.25
9249;BME280;4660;41.768;26.198;2023-03-26T15:54:06;100172.28;;;23.59;30.50
9249;BME280;4660;41.768;26.198;2023-03-26T15:59:41;100157.50;;;23.25;31.11
9249;BME280;4660;41.768;26.198;2023-03-26T16:09:01;100165.63;;;23.44;31.72
9249;BME280;4660;41.768;26.198;2023-03-26T16:11:58;100169.16;;;23.21;31.32
9249;BME280;4660;41.768;26.198;2023-03-26T16:17:21;100163.56;;;23.04;31.54
9249;BME280;4660;41.768;26.198;2023-03-26T16:20:28;100160.81;;;22.32;31.96
9249;BME280;4660;41.768;26.198;2023-03-26T16:23:01;100161.09;;;22.12;32.24
9249;BME280;4660;41.768;26.198;2023-03-26T16:25:53;100175.06;;;21.67;33.72
9249;BME280;4660;41.768;26.198;2023-03-26T16:31:30;100162.09;;;21.13;37.35
9249;BME280;4660;41.768;26.198;2023-03-26T16:34:20;100176.13;;;20.98;36.83
9249;BME280;4660;41.768;26.198;2023-03-26T16:36:53;100169.47;;;20.87;38.49
9249;BME280;4660;41.768;26.198;2023-03-26T16:39:45;100169.75;;;20.79;39.64
9249;BME280;4660;41.768;26.198;2023-03-26T16:42:30;100180.84;;;20.53;40.41
9249;BME280;4660;41.768;26.198;2023-03-26T16:45:28;100171.44;;;20.35;40.93
9249;BME280;4660;41.768;26.198;2023-03-26T16:48:34;100172.81;;;20.13;42.64
9249;BME280;4660;41.768;26.198;2023-03-26T16:51:16;100181.28;;;20.05;42.02
9249;BME280;4660;41.768;26.198;2023-03-26T17:13:00;100209.97;;;19.23;50.14
9249;BME280;4660;41.768;26.198;2023-03-26T17:16:11;100215.22;;;19.11;50.67
9249;BME280;4660;41.768;26.198;2023-03-26T17:22:04;100217.63;;;18.60;54.94
9249;BME280;4660;41.768;26.198;2023-03-26T17:42:34;100236.34;;;17.03;60.53
9249;BME280;4660;41.768;26.198;2023-03-26T17:45:21;100248.56;;;17.14;58.67
9249;BME280;4660;41.768;26.198;2023-03-26T17:48:07;100234.66;;;17.23;57.06
9249;BME280;4660;41.768;26.198;2023-03-26T17:51:03;100249.56;;;17.34;56.40
9249;BME280;4660;41.768;26.198;2023-03-26T17:53:34;100267.56;;;17.35;56.66
9249;BME280;4660;41.768;26.198;2023-03-26T17:56:13;100272.16;;;17.34;57.39
9249;BME280;4660;41.768;26.198;2023-03-26T17:58:49;100276.06;;;17.25;59.13
9249;BME280;4660;41.768;26.198;2023-03-26T18:01:36;100283.59;;;17.23;58.65
9249;BME280;4660;41.768;26.198;2023-03-26T18:04:13;100277.56;;;17.06;58.58
9249;BME280;4660;41.768;26.198;2023-03-26T18:07:15;100282.75;;;17.01;58.99
9249;BME280;4660;41.768;26.198;2023-03-26T18:13:20;100288.34;;;17.21;58.14
9249;BME280;4660;41.768;26.198;2023-03-26T18:16:18;100294.34;;;17.10;60.59
9249;BME280;4660;41.768;26.198;2023-03-26T18:18:57;100292.13;;;16.99;60.23
9249;BME280;4660;41.768;26.198;2023-03-26T18:21:31;100301.50;;;16.60;62.43
9249;BME280;4660;41.768;26.198;2023-03-26T18:23:59;100295.75;;;16.04;64.80
9249;BME280;4660;41.768;26.198;2023-03-26T18:26:35;100299.28;;;16.05;65.31
9249;BME280;4660;41.768;26.198;2023-03-26T18:32:20;100294.00;;;15.59;66.84
9249;BME280;4660;41.768;26.198;2023-03-26T18:37:41;100306.38;;;15.76;65.58
9249;BME280;4660;41.768;26.198;2023-03-26T18:40:17;100307.50;;;15.67;65.38
9249;BME280;4660;41.768;26.198;2023-03-26T18:42:57;100308.19;;;15.61;66.52
9249;BME280;4660;41.768;26.198;2023-03-26T18:45:33;100313.59;;;15.46;66.47
9249;BME280;4660;41.768;26.198;2023-03-26T18:50:40;100295.25;;;15.10;67.31
9249;BME280;4660;41.768;26.198;2023-03-26T18:53:22;100310.47;;;15.11;67.19
9249;BME280;4660;41.768;26.198;2023-03-26T18:55:54;100302.16;;;15.13;67.26
9249;BME280;4660;41.768;26.198;2023-03-26T18:58:36;100277.06;;;14.96;67.79